createdAt,value
2019-04-01T00:01:51.726Z,10.92
2019-04-01T00:04:23.669Z,11.04
2019-04-01T00:06:55.673Z,11.16
2019-04-01T00:09:27.639Z,10.99
2019-04-01T00:11:59.637Z,10.94
2019-04-01T00:14:31.590Z,10.85
2019-04-01T00:17:03.562Z,10.79
2019-04-01T00:19:35.496Z,10.81
2019-04-01T00:22:07.449Z,10.69
2019-04-01T00:24:39.382Z,10.57
2019-04-01T00:27:11.368Z,10.55
2019-04-01T00:29:43.361Z,10.60
2019-04-01T00:32:15.353Z,10.65
2019-04-01T00:34:47.317Z,10.54
2019-04-01T00:37:19.294Z,10.40
2019-04-01T00:39:51.328Z,10.49
2019-04-01T00:42:31.018Z,10.33
2019-04-01T00:45:03.460Z,10.48
2019-04-01T00:47:35.427Z,10.40
2019-04-01T00:50:07.418Z,10.26
2019-04-01T00:52:39.380Z,10.33
2019-04-01T00:55:11.305Z,10.21
2019-04-01T00:57:43.311Z,10.20
2019-04-01T01:00:16.668Z,10.19
2019-04-01T01:02:48.637Z,10.11
2019-04-01T01:05:20.644Z,10.32
2019-04-01T01:07:52.613Z,10.15
2019-04-01T01:10:24.551Z,10.08
2019-04-01T01:12:56.598Z,10.06
2019-04-01T01:15:28.647Z,10.05
2019-04-01T01:18:00.637Z,9.92
2019-04-01T01:20:32.610Z,10.00
2019-04-01T01:23:04.562Z,9.76
2019-04-01T01:25:36.571Z,9.78
2019-04-01T01:28:08.524Z,9.74
2019-04-01T01:30:40.483Z,9.76
2019-04-01T01:33:12.446Z,9.75
2019-04-01T01:35:44.400Z,9.64
2019-04-01T01:38:16.339Z,9.60
2019-04-01T01:40:48.348Z,9.62
2019-04-01T01:43:20.296Z,9.52
2019-04-01T01:45:52.456Z,9.47
2019-04-01T01:48:24.397Z,9.41
2019-04-01T01:50:56.364Z,9.52
2019-04-01T01:53:28.417Z,9.48
2019-04-01T01:56:00.402Z,9.53
2019-04-01T01:58:32.361Z,9.44
2019-04-01T02:01:04.314Z,9.26
2019-04-01T02:03:36.268Z,9.34
2019-04-01T02:06:08.266Z,9.27
2019-04-01T02:08:40.218Z,9.25
2019-04-01T02:11:12.176Z,9.24
2019-04-01T02:13:44.128Z,9.07
2019-04-01T02:16:16.107Z,9.14
2019-04-01T02:18:48.120Z,9.01
2019-04-01T02:21:20.165Z,9.09
2019-04-01T02:23:52.110Z,9.11
2019-04-01T02:26:24.111Z,9.03
2019-04-01T02:28:56.137Z,8.90
2019-04-01T02:31:28.100Z,8.89
2019-04-01T02:34:00.060Z,8.89
2019-04-01T02:36:32.014Z,8.79
2019-04-01T02:39:07.204Z,8.93
2019-04-01T02:41:39.183Z,8.84
2019-04-01T02:44:11.127Z,8.86
2019-04-01T02:46:43.097Z,8.90
2019-04-01T02:49:15.056Z,8.73
2019-04-01T02:51:47.014Z,8.69
2019-04-01T02:54:18.962Z,8.66
2019-04-01T02:56:50.960Z,8.51
2019-04-01T02:59:22.889Z,8.50
2019-04-01T03:01:54.859Z,8.45
2019-04-01T03:04:26.782Z,8.37
2019-04-01T03:06:58.762Z,8.45
2019-04-01T03:09:30.722Z,8.44
2019-04-01T03:12:02.880Z,8.32
2019-04-01T03:14:34.828Z,8.43
2019-04-01T03:17:06.818Z,8.31
2019-04-01T03:19:38.954Z,8.49
2019-04-01T03:22:10.944Z,8.49
2019-04-01T03:24:42.893Z,8.40
2019-04-01T03:27:17.277Z,8.32
2019-04-01T03:29:48.672Z,8.31
2019-04-01T03:32:20.638Z,8.36
2019-04-01T03:34:52.608Z,8.37
2019-04-01T03:37:24.542Z,8.30
2019-04-01T03:39:56.519Z,8.24
2019-04-01T03:42:28.474Z,8.30
2019-04-01T03:45:00.444Z,8.22
2019-04-01T03:47:32.457Z,8.20
2019-04-01T03:50:04.435Z,8.13
2019-04-01T03:52:36.383Z,8.09
2019-04-01T03:55:08.373Z,8.25
2019-04-01T03:57:40.314Z,8.05
2019-04-01T04:00:12.448Z,8.00
2019-04-01T04:02:44.387Z,7.97
2019-04-01T04:05:16.348Z,8.09
2019-04-01T04:07:48.314Z,7.96
2019-04-01T04:10:20.270Z,8.03
2019-04-01T04:12:52.252Z,7.92
2019-04-01T04:15:24.249Z,7.85
2019-04-01T04:17:56.286Z,7.84
2019-04-01T04:20:28.266Z,7.85
2019-04-01T04:23:00.183Z,7.93
2019-04-01T04:25:32.189Z,8.00
2019-04-01T04:28:04.361Z,7.91
2019-04-01T04:30:36.381Z,7.80
2019-04-01T04:33:08.360Z,7.85
2019-04-01T04:35:40.326Z,7.86
2019-04-01T04:38:12.283Z,7.80
2019-04-01T04:40:44.285Z,7.67
2019-04-01T04:43:16.228Z,7.71
2019-04-01T04:45:48.205Z,7.73
2019-04-01T04:48:20.144Z,7.74
2019-04-01T04:50:52.125Z,7.66
2019-04-01T04:53:24.073Z,7.77
2019-04-01T04:55:56.069Z,7.45
2019-04-01T04:58:28.070Z,7.40
2019-04-01T05:01:00.029Z,7.44
2019-04-01T05:03:31.992Z,7.55
2019-04-01T05:06:03.977Z,7.40
2019-04-01T05:08:36.049Z,7.54
2019-04-01T05:11:08.015Z,7.38
2019-04-01T05:13:39.990Z,7.50
2019-04-01T05:16:11.957Z,7.59
2019-04-01T05:18:43.895Z,7.49
2019-04-01T05:21:16.529Z,7.47
2019-04-01T05:23:50.278Z,7.38
2019-04-01T05:26:22.544Z,7.54
2019-04-01T05:28:54.474Z,7.35
2019-04-01T05:31:27.935Z,7.43
2019-04-01T05:34:00.688Z,7.57
2019-04-01T05:36:32.774Z,7.57
2019-04-01T05:39:05.836Z,7.74
2019-04-01T05:41:37.858Z,7.79
2019-04-01T05:44:09.815Z,7.81
2019-04-01T05:46:41.824Z,7.92
2019-04-01T05:49:13.856Z,7.92
2019-04-01T05:51:45.846Z,7.90
2019-04-01T05:54:17.811Z,8.04
2019-04-01T05:56:49.764Z,8.10
2019-04-01T05:59:21.707Z,8.06
2019-04-01T06:01:53.829Z,8.41
2019-04-01T06:04:25.879Z,8.75
2019-04-01T06:06:58.147Z,8.90
2019-04-01T06:09:30.223Z,9.18
2019-04-01T06:12:02.433Z,9.38
2019-04-01T06:14:34.393Z,9.58
2019-04-01T06:17:06.396Z,9.73
2019-04-01T06:19:38.356Z,9.74
2019-04-01T06:22:10.338Z,9.88
2019-04-01T06:24:42.292Z,9.85
2019-04-01T06:27:14.336Z,9.98
2019-04-01T06:29:46.444Z,9.86
2019-04-01T06:32:18.372Z,10.34
2019-04-01T06:34:52.909Z,10.69
2019-04-01T06:37:24.229Z,10.47
2019-04-01T06:39:56.214Z,10.92
2019-04-01T06:42:28.245Z,10.99
2019-04-01T06:45:00.362Z,11.53
2019-04-01T06:47:32.281Z,11.83
2019-04-01T06:50:04.445Z,12.00
2019-04-01T06:52:36.386Z,12.23
2019-04-01T06:55:08.498Z,12.63
2019-04-01T06:57:40.439Z,12.89
2019-04-01T07:00:12.724Z,13.11
2019-04-01T07:02:44.677Z,13.22
2019-04-01T07:05:16.654Z,12.99
2019-04-01T07:07:48.759Z,13.34
2019-04-01T07:10:20.752Z,13.45
2019-04-01T07:12:52.692Z,13.29
2019-04-01T07:15:24.679Z,13.33
2019-04-01T07:17:57.490Z,13.78
2019-04-01T07:20:29.485Z,13.90
2019-04-01T07:23:01.444Z,14.13
2019-04-01T07:25:34.298Z,14.08
2019-04-01T07:28:06.261Z,14.05
2019-04-01T07:30:41.659Z,13.77
2019-04-01T07:33:12.343Z,13.85
2019-04-01T07:35:46.609Z,13.95
2019-04-01T07:38:18.459Z,14.32
2019-04-01T07:40:50.440Z,14.33
2019-04-01T07:43:22.515Z,14.36
2019-04-01T07:45:54.517Z,14.38
2019-04-01T07:48:26.460Z,14.66
2019-04-01T07:50:58.476Z,14.52
2019-04-01T07:53:30.441Z,14.82
2019-04-01T07:56:02.887Z,14.69
2019-04-01T07:58:34.911Z,14.56
2019-04-01T08:01:06.860Z,14.32
2019-04-01T08:03:41.766Z,14.29
2019-04-01T08:06:12.706Z,14.22
2019-04-01T08:08:46.378Z,14.36
2019-04-01T08:11:18.619Z,14.71
2019-04-01T08:13:50.568Z,14.98
2019-04-01T08:16:22.574Z,15.02
2019-04-01T08:18:54.530Z,15.00
2019-04-01T08:21:26.529Z,15.37
2019-04-01T08:23:58.481Z,15.49
2019-04-01T08:26:30.457Z,15.31
2019-04-01T08:29:02.522Z,15.75
2019-04-01T08:31:34.597Z,16.16
2019-04-01T08:34:06.599Z,16.34
2019-04-01T08:36:38.617Z,16.34
2019-04-01T08:39:13.175Z,16.38
2019-04-01T08:41:45.155Z,16.24
2019-04-01T08:44:17.123Z,16.44
2019-04-01T08:46:56.346Z,16.40
2019-04-01T08:49:28.338Z,16.45
2019-04-01T08:52:00.330Z,16.55
2019-04-01T08:54:32.426Z,16.88
2019-04-01T08:57:04.394Z,16.98
2019-04-01T08:59:36.645Z,16.82
2019-04-01T09:02:17.759Z,16.75
2019-04-01T09:04:43.019Z,16.73
2019-04-01T09:07:15.144Z,16.24
2019-04-01T09:09:48.128Z,16.42
2019-04-01T09:12:20.096Z,16.54
2019-04-01T09:14:52.187Z,16.55
2019-04-01T09:17:24.166Z,16.57
2019-04-01T09:19:56.156Z,16.82
2019-04-01T09:22:28.106Z,16.70
2019-04-01T09:25:00.409Z,17.05
2019-04-01T09:27:32.460Z,17.26
2019-04-01T09:30:05.477Z,17.38
2019-04-01T09:32:37.439Z,17.44
2019-04-01T09:35:09.401Z,17.46
2019-04-01T09:37:41.377Z,17.32
2019-04-01T09:40:13.565Z,17.41
2019-04-01T09:42:45.654Z,17.50
2019-04-01T09:45:17.629Z,17.62
2019-04-01T09:47:49.622Z,17.61
2019-04-01T09:50:21.659Z,17.51
2019-04-01T09:52:53.627Z,17.78
2019-04-01T09:55:25.621Z,17.79
2019-04-01T09:57:57.577Z,17.77
2019-04-01T10:00:29.657Z,17.48
2019-04-01T10:03:01.594Z,16.96
2019-04-01T10:05:33.577Z,17.05
2019-04-01T10:08:05.594Z,17.47
2019-04-01T10:10:37.575Z,17.73
2019-04-01T10:13:09.586Z,17.96
2019-04-01T10:15:41.679Z,17.95
2019-04-01T10:18:13.658Z,17.82
2019-04-01T10:20:45.630Z,17.55
2019-04-01T10:23:17.606Z,17.54
2019-04-01T10:25:51.561Z,17.38
2019-04-01T10:28:23.443Z,17.63
2019-04-01T10:30:55.427Z,17.47
2019-04-01T10:33:27.407Z,17.60
2019-04-01T10:35:59.412Z,17.78
2019-04-01T10:38:31.397Z,17.62
2019-04-01T10:41:05.093Z,17.64
2019-04-01T10:43:37.067Z,17.69
2019-04-01T10:46:12.068Z,17.63
2019-04-01T10:48:43.047Z,17.87
2019-04-01T10:51:15.125Z,17.87
2019-04-01T10:53:47.146Z,17.70
2019-04-01T10:56:19.171Z,17.81
2019-04-01T10:58:51.201Z,17.65
2019-04-01T11:01:23.287Z,17.70
2019-04-01T11:03:55.390Z,17.78
2019-04-01T11:06:29.690Z,17.55
2019-04-01T11:09:05.331Z,17.49
2019-04-01T11:11:37.418Z,17.71
2019-04-01T11:14:09.386Z,17.67
2019-04-01T11:16:41.423Z,17.62
2019-04-01T11:19:13.409Z,17.67
2019-04-01T11:21:45.382Z,17.47
2019-04-01T11:24:17.421Z,17.38
2019-04-01T11:26:49.426Z,17.40
2019-04-01T11:29:21.451Z,17.67
2019-04-01T11:31:53.468Z,17.55
2019-04-01T11:34:25.552Z,17.56
2019-04-01T11:36:57.493Z,17.44
2019-04-01T11:39:30.706Z,17.73
2019-04-01T11:42:02.728Z,17.82
2019-04-01T11:44:34.797Z,17.78
2019-04-01T11:47:06.874Z,17.93
2019-04-01T11:49:38.997Z,17.91
2019-04-01T11:52:10.976Z,17.73
2019-04-01T11:54:43.007Z,17.84
2019-04-01T11:57:14.990Z,17.96
2019-04-01T11:59:47.128Z,17.82
2019-04-01T12:02:19.140Z,17.72
2019-04-01T12:04:53.463Z,17.87
2019-04-01T12:07:25.412Z,17.77
2019-04-01T12:09:57.438Z,17.79
2019-04-01T12:12:29.416Z,17.77
2019-04-01T12:15:01.426Z,17.73
2019-04-01T12:17:33.409Z,17.78
2019-04-01T12:20:05.441Z,17.92
2019-04-01T12:22:37.391Z,17.90
2019-04-01T12:25:09.655Z,18.02
2019-04-01T12:27:41.698Z,18.17
2019-04-01T12:30:13.784Z,18.24
2019-04-01T12:32:45.762Z,18.01
2019-04-01T12:35:18.422Z,18.04
2019-04-01T12:37:51.280Z,18.01
2019-04-01T12:40:25.677Z,18.08
2019-04-01T12:42:58.024Z,17.88
2019-04-01T12:45:30.166Z,17.83
2019-04-01T12:48:02.109Z,17.76
2019-04-01T12:50:34.124Z,17.81
2019-04-01T12:53:06.171Z,18.01
2019-04-01T12:55:38.180Z,18.00
2019-04-01T12:58:10.130Z,18.23
2019-04-01T13:00:42.124Z,18.20
2019-04-01T13:03:14.076Z,18.24
2019-04-01T13:05:46.096Z,18.26
2019-04-01T13:08:18.094Z,18.35
2019-04-01T13:10:50.567Z,18.38
2019-04-01T13:13:22.934Z,18.45
2019-04-01T13:15:54.955Z,18.38
2019-04-01T13:18:26.938Z,18.50
2019-04-01T13:20:58.926Z,18.61
2019-04-01T13:23:32.247Z,18.46
2019-04-01T13:26:04.256Z,18.39
2019-04-01T13:28:36.363Z,18.39
2019-04-01T13:31:08.362Z,18.40
2019-04-01T13:33:40.406Z,18.55
2019-04-01T13:36:12.347Z,18.61
2019-04-01T13:38:44.413Z,18.62
2019-04-01T13:41:16.500Z,18.56
2019-04-01T13:43:48.707Z,18.52
2019-04-01T13:46:20.679Z,18.36
2019-04-01T13:48:57.930Z,18.29
2019-04-01T13:51:26.570Z,18.24
2019-04-01T13:54:08.414Z,18.22
2019-04-01T13:56:32.495Z,18.24
2019-04-01T13:59:04.515Z,18.22
2019-04-01T14:01:36.496Z,18.27
2019-04-01T14:04:08.491Z,18.13
2019-04-01T14:06:40.481Z,18.05
2019-04-01T14:09:12.508Z,18.11
2019-04-01T14:11:44.485Z,18.21
2019-04-01T14:14:16.521Z,18.22
2019-04-01T14:16:48.534Z,18.58
2019-04-01T14:19:20.563Z,18.65
2019-04-01T14:21:52.565Z,18.68
2019-04-01T14:24:24.608Z,18.60
2019-04-01T14:26:56.785Z,18.59
2019-04-01T14:29:28.789Z,18.50
2019-04-01T14:32:00.774Z,18.53
2019-04-01T14:34:32.777Z,18.39
2019-04-01T14:37:04.997Z,18.42
2019-04-01T14:39:37.019Z,18.51
2019-04-01T14:42:09.029Z,18.58
2019-04-01T14:44:40.989Z,18.62
2019-04-01T14:47:12.968Z,18.44
2019-04-01T14:49:45.009Z,18.64
2019-04-01T14:52:25.771Z,18.66
2019-04-01T14:54:50.933Z,18.51
2019-04-01T14:57:22.971Z,18.45
2019-04-01T14:59:56.365Z,18.48
2019-04-01T15:02:28.485Z,18.54
2019-04-01T15:05:00.505Z,18.67
2019-04-01T15:07:32.603Z,18.46
2019-04-01T15:10:05.901Z,18.47
2019-04-01T15:12:39.454Z,18.44
2019-04-01T15:15:11.627Z,18.53
2019-04-01T15:17:43.620Z,18.37
2019-04-01T15:20:15.743Z,18.41
2019-04-01T15:22:47.777Z,18.25
2019-04-01T15:25:19.774Z,18.14
2019-04-01T15:27:51.824Z,18.19
2019-04-01T15:30:23.849Z,18.11
2019-04-01T15:32:55.876Z,18.18
2019-04-01T15:35:27.861Z,18.26
2019-04-01T15:37:59.911Z,18.43
2019-04-01T15:40:33.345Z,18.30
2019-04-01T15:43:05.542Z,18.32
2019-04-01T15:45:37.607Z,18.28
2019-04-01T15:48:09.666Z,18.30
2019-04-01T15:50:41.656Z,18.23
2019-04-01T15:53:13.669Z,18.30
2019-04-01T15:55:45.708Z,18.27
2019-04-01T15:58:17.741Z,18.07
2019-04-01T16:00:49.853Z,18.18
2019-04-01T16:03:21.866Z,18.08
2019-04-01T16:05:53.839Z,18.06
2019-04-01T16:08:25.858Z,17.98
2019-04-01T16:10:57.832Z,17.85
2019-04-01T16:13:29.862Z,17.77
2019-04-01T16:16:01.875Z,17.72
2019-04-01T16:18:33.900Z,17.77
2019-04-01T16:21:05.929Z,17.84
2019-04-01T16:23:38.020Z,17.85
2019-04-01T16:26:10.232Z,17.74
2019-04-01T16:28:42.259Z,17.81
2019-04-01T16:31:14.240Z,17.81
2019-04-01T16:33:47.610Z,17.82
2019-04-01T16:36:19.561Z,17.67
2019-04-01T16:38:51.617Z,17.73
2019-04-01T16:41:23.645Z,17.84
2019-04-01T16:43:55.686Z,17.81
2019-04-01T16:46:27.649Z,17.70
2019-04-01T16:48:59.691Z,17.76
2019-04-01T16:51:31.991Z,17.66
2019-04-01T16:54:04.321Z,17.47
2019-04-01T16:56:37.211Z,17.48
2019-04-01T16:59:10.019Z,17.42
2019-04-01T17:01:42.049Z,17.34
2019-04-01T17:04:14.110Z,17.28
2019-04-01T17:06:46.100Z,17.21
2019-04-01T17:09:18.147Z,17.22
2019-04-01T17:11:50.127Z,17.17
2019-04-01T17:14:22.195Z,17.02
2019-04-01T17:16:54.467Z,16.94
2019-04-01T17:19:28.005Z,16.98
2019-04-01T17:22:00.196Z,16.98
2019-04-01T17:24:32.253Z,16.97
2019-04-01T17:27:09.300Z,16.83
2019-04-01T17:29:42.933Z,16.88
2019-04-01T17:32:14.916Z,16.83
2019-04-01T17:34:46.948Z,16.91
2019-04-01T17:37:19.011Z,16.82
2019-04-01T17:39:51.017Z,16.79
2019-04-01T17:42:23.047Z,16.60
2019-04-01T17:44:56.714Z,16.54
2019-04-01T17:47:28.872Z,16.78
2019-04-01T17:50:00.869Z,16.60
2019-04-01T17:52:32.987Z,16.50
2019-04-01T17:55:08.032Z,16.44
2019-04-01T17:57:40.106Z,16.36
2019-04-01T18:00:16.247Z,16.37
2019-04-01T18:02:48.295Z,16.33
2019-04-01T18:05:20.487Z,16.27
2019-04-01T18:07:52.545Z,16.12
2019-04-01T18:10:24.702Z,16.05
2019-04-01T18:12:56.794Z,16.01
2019-04-01T18:15:28.969Z,15.94
2019-04-01T18:18:01.000Z,15.90
2019-04-01T18:20:33.443Z,15.88
2019-04-01T18:23:06.546Z,15.82
2019-04-01T18:25:38.574Z,15.73
2019-04-01T18:28:10.589Z,15.72
2019-04-01T18:30:45.743Z,15.66
2019-04-01T18:33:19.744Z,15.63
2019-04-01T18:35:51.771Z,15.61
2019-04-01T18:38:23.906Z,15.61
2019-04-01T18:40:55.908Z,15.49
2019-04-01T18:43:28.230Z,15.49
2019-04-01T18:46:00.613Z,15.45
2019-04-01T18:48:32.886Z,15.41
2019-04-01T18:51:04.966Z,15.37
2019-04-01T18:53:37.084Z,15.40
2019-04-01T18:56:09.223Z,15.27
2019-04-01T18:58:41.355Z,15.33
2019-04-01T19:01:13.390Z,15.12
2019-04-01T19:03:45.514Z,15.00
2019-04-01T19:06:17.484Z,14.94
2019-04-01T19:08:49.690Z,14.87
2019-04-01T19:11:21.711Z,14.80
2019-04-01T19:13:53.923Z,14.70
2019-04-01T19:16:25.982Z,14.64
2019-04-01T19:18:58.074Z,14.53
2019-04-01T19:21:30.068Z,14.40
2019-04-01T19:24:02.132Z,14.33
2019-04-01T19:26:34.153Z,14.22
2019-04-01T19:29:06.263Z,14.14
2019-04-01T19:31:41.141Z,14.03
2019-04-01T19:34:13.322Z,13.97
2019-04-01T19:36:45.547Z,13.89
2019-04-01T19:39:18.121Z,13.82
2019-04-01T19:41:50.170Z,13.67
2019-04-01T19:44:22.290Z,13.55
2019-04-01T19:46:54.346Z,13.43
2019-04-01T19:49:26.402Z,13.38
2019-04-01T19:51:58.476Z,13.37
2019-04-01T19:54:33.604Z,13.22
2019-04-01T19:57:04.517Z,13.11
2019-04-01T19:59:36.562Z,13.08
2019-04-01T20:02:09.673Z,13.00
2019-04-01T20:04:41.947Z,12.94
2019-04-01T20:07:14.040Z,12.88
2019-04-01T20:09:46.342Z,12.81
2019-04-01T20:12:18.494Z,12.79
2019-04-01T20:14:50.511Z,12.73
2019-04-01T20:17:22.621Z,12.70
2019-04-01T20:19:54.680Z,12.62
2019-04-01T20:22:26.731Z,12.57
2019-04-01T20:24:59.039Z,12.51
2019-04-01T20:27:31.112Z,12.34
2019-04-01T20:30:04.815Z,12.33
2019-04-01T20:32:36.870Z,12.35
2019-04-01T20:35:22.344Z,12.28
2019-04-01T20:37:43.818Z,12.20
2019-04-01T20:40:16.298Z,12.19
2019-04-01T20:42:48.315Z,12.04
2019-04-01T20:45:20.371Z,12.01
2019-04-01T20:47:52.383Z,11.96
2019-04-01T20:50:24.413Z,11.97
2019-04-01T20:52:56.435Z,11.85
2019-04-01T20:55:28.410Z,11.80
2019-04-01T20:58:00.396Z,11.66
2019-04-01T21:00:32.400Z,11.68
2019-04-01T21:03:04.463Z,11.63
2019-04-01T21:05:36.514Z,11.55
2019-04-01T21:08:08.610Z,11.45
2019-04-01T21:10:42.188Z,11.45
2019-04-01T21:13:14.495Z,11.54
2019-04-01T21:15:46.508Z,11.52
2019-04-01T21:18:19.189Z,11.49
2019-04-01T21:20:51.935Z,11.49
2019-04-01T21:23:23.929Z,11.51
2019-04-01T21:25:56.005Z,11.36
2019-04-01T21:28:28.030Z,11.30
2019-04-01T21:31:00.044Z,11.25
2019-04-01T21:33:32.118Z,11.22
2019-04-01T21:36:04.220Z,11.23
2019-04-01T21:38:36.242Z,11.25
2019-04-01T21:41:08.226Z,11.16
2019-04-01T21:43:40.245Z,11.12
2019-04-01T21:46:13.199Z,11.02
2019-04-01T21:48:46.118Z,10.95
2019-04-01T21:51:18.077Z,10.92
2019-04-01T21:53:50.102Z,10.87
2019-04-01T21:56:23.098Z,10.82
2019-04-01T21:58:55.416Z,10.82
2019-04-01T22:01:27.490Z,10.77
2019-04-01T22:03:59.595Z,10.67
2019-04-01T22:06:31.549Z,10.69
2019-04-01T22:09:06.639Z,10.67
2019-04-01T22:11:38.685Z,10.64
2019-04-01T22:14:10.673Z,10.58
2019-04-01T22:16:42.679Z,10.51
2019-04-01T22:19:14.650Z,10.44
2019-04-01T22:21:46.694Z,10.46
2019-04-01T22:24:18.667Z,10.46
2019-04-01T22:26:50.733Z,10.41
2019-04-01T22:29:22.696Z,10.38
2019-04-01T22:31:54.710Z,10.34
2019-04-01T22:34:26.793Z,10.33
2019-04-01T22:36:58.810Z,10.33
2019-04-01T22:39:30.786Z,10.28
2019-04-01T22:42:02.796Z,10.19
2019-04-01T22:44:34.744Z,10.07
2019-04-01T22:47:06.748Z,10.10
2019-04-01T22:49:38.814Z,9.88
2019-04-01T22:52:10.780Z,9.75
2019-04-01T22:54:42.764Z,9.72
2019-04-01T22:57:14.789Z,9.75
2019-04-01T22:59:46.759Z,9.77
2019-04-01T23:02:18.759Z,9.76
2019-04-01T23:04:50.711Z,9.76
2019-04-01T23:07:22.723Z,9.76
2019-04-01T23:09:54.687Z,9.80
2019-04-01T23:12:26.762Z,9.73
2019-04-01T23:14:58.731Z,9.73
2019-04-01T23:17:30.726Z,9.75
2019-04-01T23:20:03.567Z,9.77
2019-04-01T23:22:36.003Z,9.79
2019-04-01T23:25:07.967Z,9.70
2019-04-01T23:27:40.040Z,9.80
2019-04-01T23:30:12.190Z,9.62
2019-04-01T23:32:45.306Z,9.57
2019-04-01T23:35:17.451Z,9.45
2019-04-01T23:37:49.530Z,9.32
2019-04-01T23:40:21.474Z,9.34
2019-04-01T23:42:53.496Z,9.28
2019-04-01T23:45:25.466Z,9.15
2019-04-01T23:47:57.455Z,9.18
2019-04-01T23:50:29.442Z,9.07
2019-04-01T23:53:02.258Z,9.02
2019-04-01T23:55:34.523Z,8.95
2019-04-01T23:58:06.522Z,8.82
